Time;durP1;ratioP1;P1;durP2;ratioP2;P2;SDS_P1;SDS_P2;PMS_P1;PMS_P2;Temp;Humidity;BMP_temperature;BMP_pressure;BME280_temperature;BME280_humidity;BME280_pressure;Samples;Min_cycle;Max_cycle;Signal;HPM_P1;HPM_P2
2022/08/19 00:01:30;;;;;;;;;;;;;;;23.54;55.74;95221.81;10324433;28;1878;-52
2022/08/19 00:06:30;;;;;;;;;;;;;;;23.50;55.52;95242.03;10323555;28;1898;-49
2022/08/19 00:11:30;;;;;;;;;;;;;;;23.50;55.54;95226.16;10323187;28;2013;-52
2022/08/19 00:16:30;;;;;;;;;;;;;;;23.47;55.48;95230.22;10324075;28;1976;-50
2022/08/19 00:21:31;;;;;;;;;;;;;;;23.45;55.56;95214.63;10316608;28;1830;-51
2022/08/19 00:26:31;;;;;;;;;;;;;;;23.43;55.64;95192.25;10321300;28;1893;-51
2022/08/19 00:31:31;;;;;;;;;;;;;;;23.38;55.62;95174.63;10327827;28;2174;-47
2022/08/19 00:36:32;;;;;;;;;;;;;;;23.42;55.52;95170.28;10329394;28;1921;-49
2022/08/19 00:41:33;;;;;;;;;;;;;;;23.39;55.76;95181.47;10331351;28;1893;-51
2022/08/19 00:46:35;;;;;;;;;;;;;;;23.36;55.91;95186.59;10326175;28;1846;-50
2022/08/19 00:51:36;;;;;;;;;;;;;;;23.37;55.70;95175.69;10327679;28;1914;-51
2022/08/19 00:56:36;;;;;;;;;;;;;;;23.37;55.73;95151.09;10323205;28;1949;-46
2022/08/19 01:01:37;;;;;;;;;;;;;;;23.43;55.77;95163.91;10327633;28;1886;-51
2022/08/19 01:06:37;;;;;;;;;;;;;;;23.43;55.60;95163.16;10315739;28;1948;-47
2022/08/19 01:11:38;;;;;;;;;;;;;;;23.44;55.52;95151.47;10327594;28;1972;-48
2022/08/19 01:16:39;;;;;;;;;;;;;;;23.41;55.61;95144.91;10327953;28;2012;-52
2022/08/19 01:21:48;;;;;;;;;;;;;;;23.44;55.56;95151.47;10323503;28;1929;-48
2022/08/19 01:26:48;;;;;;;;;;;;;;;23.48;55.40;95147.13;10324362;28;1811;-50
2022/08/19 01:31:51;;;;;;;;;;;;;;;23.45;55.33;95159.09;10325424;28;1918;-54
2022/08/19 01:36:52;;;;;;;;;;;;;;;23.36;55.69;95176.00;10325737;28;1954;-54
2022/08/19 01:41:54;;;;;;;;;;;;;;;23.29;55.75;95186.22;10324961;28;1873;-55
2022/08/19 01:46:54;;;;;;;;;;;;;;;23.27;55.71;95186.50;10325281;28;1916;-48
2022/08/19 01:51:55;;;;;;;;;;;;;;;23.28;55.79;95196.03;10323826;28;1918;-52
2022/08/19 01:56:57;;;;;;;;;;;;;;;23.30;55.61;95201.00;10325073;28;1909;-53
2022/08/19 02:01:57;;;;;;;;;;;;;;;23.32;55.41;95196.22;10326347;28;1846;-52
2022/08/19 02:06:58;;;;;;;;;;;;;;;23.28;55.86;95189.94;10323956;28;1944;-51
2022/08/19 02:11:58;;;;;;;;;;;;;;;23.22;56.01;95191.16;10328463;28;1906;-51
2022/08/19 02:16:58;;;;;;;;;;;;;;;23.18;55.76;95206.06;10323817;28;1917;-53
2022/08/19 02:21:59;;;;;;;;;;;;;;;23.11;55.91;95218.94;10325371;28;1897;-49
2022/08/19 02:26:59;;;;;;;;;;;;;;;23.13;55.91;95219.41;10325076;28;2074;-50
2022/08/19 02:31:59;;;;;;;;;;;;;;;23.16;55.87;95229.41;10323764;28;1930;-52
2022/08/19 02:37:00;;;;;;;;;;;;;;;23.21;55.73;95231.91;10323525;28;1941;-54
2022/08/19 02:42:01;;;;;;;;;;;;;;;23.25;55.81;95211.69;10325887;28;1974;-51
2022/08/19 02:47:02;;;;;;;;;;;;;;;23.19;55.76;95183.81;10324849;28;1898;-51
2022/08/19 02:52:02;;;;;;;;;;;;;;;23.20;55.75;95154.47;10327212;28;1919;-52
2022/08/19 02:57:03;;;;;;;;;;;;;;;23.20;55.61;95158.97;10322683;28;1890;-51
2022/08/19 03:02:03;;;;;;;;;;;;;;;23.23;55.53;95147.75;10321968;28;1846;-52
2022/08/19 03:07:03;;;;;;;;;;;;;;;23.24;55.56;95138.75;10323874;28;1893;-51
2022/08/19 03:12:04;;;;;;;;;;;;;;;23.23;55.51;95168.91;10323634;28;1907;-51
2022/08/19 03:17:05;;;;;;;;;;;;;;;23.20;55.79;95175.59;10323678;28;1964;-51
2022/08/19 03:22:05;;;;;;;;;;;;;;;23.29;55.28;95154.47;10324906;28;1922;-51
2022/08/19 03:27:05;;;;;;;;;;;;;;;23.39;55.27;95180.69;10322322;28;2100;-51
2022/08/19 03:32:05;;;;;;;;;;;;;;;23.30;55.21;95187.78;10323653;28;1906;-52
2022/08/19 03:37:07;;;;;;;;;;;;;;;23.25;55.30;95191.31;10323595;28;1857;-51
2022/08/19 03:42:07;;;;;;;;;;;;;;;23.23;55.58;95182.13;10321776;28;1917;-52
2022/08/19 03:47:08;;;;;;;;;;;;;;;23.24;55.57;95184.50;10321705;28;1921;-53
2022/08/19 03:52:08;;;;;;;;;;;;;;;23.28;55.30;95180.16;10320188;28;1902;-52
2022/08/19 03:57:08;;;;;;;;;;;;;;;23.28;55.32;95185.44;10319291;28;1918;-52
2022/08/19 04:02:10;;;;;;;;;;;;;;;23.29;55.10;95191.50;10318703;28;1819;-51
2022/08/19 04:07:10;;;;;;;;;;;;;;;23.28;55.35;95180.16;10320426;28;1866;-52
2022/08/19 04:12:10;;;;;;;;;;;;;;;23.32;55.05;95175.06;10319704;28;1966;-54
2022/08/19 04:17:13;;;;;;;;;;;;;;;23.28;55.33;95166.16;10322093;28;1957;-52
2022/08/19 04:22:14;;;;;;;;;;;;;;;23.34;54.89;95172.88;10320058;28;1834;-50
2022/08/19 04:27:16;;;;;;;;;;;;;;;23.40;54.75;95171.69;10318803;28;1838;-48
2022/08/19 04:32:16;;;;;;;;;;;;;;;23.44;54.80;95183.19;10320625;28;1929;-51
2022/08/19 04:37:16;;;;;;;;;;;;;;;23.49;54.50;95198.94;10319362;28;1905;-51
2022/08/19 04:47:37;;;;;;;;;;;;;;;23.53;54.28;95207.84;10321575;28;1885;-52
2022/08/19 04:52:41;;;;;;;;;;;;;;;23.38;54.65;95216.94;10318108;28;1969;-50
2022/08/19 04:57:42;;;;;;;;;;;;;;;23.37;54.90;95227.81;10317279;28;1902;-52
2022/08/19 05:02:42;;;;;;;;;;;;;;;23.39;54.66;95231.72;10318907;28;1910;-51
2022/08/19 05:07:43;;;;;;;;;;;;;;;23.41;54.84;95237.47;10316296;28;1886;-50
2022/08/19 05:12:43;;;;;;;;;;;;;;;23.39;54.76;95244.16;10321562;28;1936;-52
2022/08/19 05:22:31;;;;;;;;;;;;;;;23.37;54.73;95235.75;10327082;28;1858;-52
2022/08/19 05:23:03;;;;;;;;;;;;;;;23.37;54.84;95235.75;10321761;28;2043;-53
2022/08/19 05:28:04;;;;;;;;;;;;;;;23.38;55.03;95239.97;10320733;28;1909;-52
2022/08/19 05:33:04;;;;;;;;;;;;;;;23.39;54.99;95228.28;10326893;28;1914;-52
2022/08/19 05:38:06;;;;;;;;;;;;;;;23.15;55.30;95222.53;10325430;28;1966;-51
2022/08/19 05:43:07;;;;;;;;;;;;;;;22.82;56.43;95229.13;10327030;28;1938;-54
2022/08/19 05:48:07;;;;;;;;;;;;;;;22.83;56.50;95222.78;10326395;28;1854;-53
2022/08/19 05:53:08;;;;;;;;;;;;;;;22.83;56.27;95228.88;10324154;28;1990;-54
2022/08/19 05:58:09;;;;;;;;;;;;;;;22.54;57.31;95220.50;10317552;28;1858;-49
2022/08/19 06:03:09;;;;;;;;;;;;;;;22.33;57.80;95228.09;10318183;28;2066;-47
2022/08/19 06:08:10;;;;;;;;;;;;;;;22.25;58.36;95226.16;10318571;28;1857;-49
2022/08/19 06:13:10;;;;;;;;;;;;;;;22.22;58.31;95226.75;10317616;28;1985;-50
2022/08/19 06:18:10;;;;;;;;;;;;;;;22.18;58.94;95233.69;10314839;28;1980;-52
2022/08/19 06:23:11;;;;;;;;;;;;;;;22.13;58.70;95233.81;10318430;28;1913;-49
2022/08/19 06:28:11;;;;;;;;;;;;;;;22.18;59.06;95243.47;10316802;28;1905;-48
2022/08/19 06:33:11;;;;;;;;;;;;;;;22.26;58.44;95227.72;10316817;28;1947;-49
2022/08/19 06:38:12;;;;;;;;;;;;;;;22.28;58.79;95236.13;10317183;28;1846;-51
2022/08/19 06:43:15;;;;;;;;;;;;;;;22.27;58.46;95241.69;10314596;28;1953;-51
2022/08/19 06:48:15;;;;;;;;;;;;;;;22.28;59.12;95237.97;10309068;28;2343;-49
2022/08/19 06:53:17;;;;;;;;;;;;;;;22.19;59.55;95243.19;10315976;28;1968;-51
2022/08/19 06:58:17;;;;;;;;;;;;;;;22.20;59.58;95243.94;10313499;28;1850;-47
2022/08/19 07:03:18;;;;;;;;;;;;;;;22.17;60.14;95239.28;10310485;28;1778;-46
2022/08/19 07:08:18;;;;;;;;;;;;;;;22.26;59.90;95227.72;10311761;28;1920;-49
2022/08/19 07:13:18;;;;;;;;;;;;;;;22.54;59.54;95229.22;10315496;28;2041;-50
2022/08/19 07:18:20;;;;;;;;;;;;;;;22.79;58.76;95216.53;10313552;28;1791;-51
2022/08/19 07:23:20;;;;;;;;;;;;;;;22.95;58.42;95213.25;10313877;28;1890;-51
2022/08/19 07:28:20;;;;;;;;;;;;;;;23.08;57.99;95196.50;10314283;28;1889;-53
2022/08/19 07:33:20;;;;;;;;;;;;;;;23.20;57.60;95188.81;10313500;28;1899;-54
2022/08/19 07:38:21;;;;;;;;;;;;;;;23.27;57.36;95189.16;10309841;28;1880;-53
2022/08/19 07:43:24;;;;;;;;;;;;;;;23.35;57.22;95190.31;10313652;28;1785;-54
2022/08/19 07:48:25;;;;;;;;;;;;;;;23.32;57.29;95198.88;10311006;28;2531;-50
2022/08/19 07:53:26;;;;;;;;;;;;;;;23.37;57.41;95211.94;10313595;28;1944;-53
2022/08/19 07:58:27;;;;;;;;;;;;;;;23.44;57.14;95205.16;10313481;28;1925;-52
2022/08/19 08:14:05;;;;;;;;;;;;;;;23.45;57.25;95217.28;10308748;28;1951;-51
2022/08/19 08:19:06;;;;;;;;;;;;;;;23.47;56.92;95222.28;10311688;28;1912;-53
2022/08/19 08:24:06;;;;;;;;;;;;;;;23.48;57.12;95223.84;10312956;28;1937;-53
2022/08/19 08:29:07;;;;;;;;;;;;;;;23.49;56.89;95229.91;10313374;28;1926;-48
2022/08/19 08:34:08;;;;;;;;;;;;;;;23.53;56.85;95223.72;10311957;28;1890;-51
2022/08/19 08:39:09;;;;;;;;;;;;;;;23.57;56.49;95235.25;10313697;28;1909;-51
2022/08/19 08:44:32;;;;;;;;;;;;;;;23.62;56.32;95243.03;10314519;28;1901;-50
2022/08/19 08:49:34;;;;;;;;;;;;;;;23.69;56.06;95247.91;10317936;28;1923;-51
2022/08/19 08:54:40;;;;;;;;;;;;;;;23.70;56.01;95255.53;10317517;28;1965;-51
2022/08/19 08:59:40;;;;;;;;;;;;;;;23.72;56.04;95249.94;10328975;28;1956;-50
2022/08/19 09:04:41;;;;;;;;;;;;;;;23.69;56.31;95251.31;10317424;28;1866;-53
2022/08/19 09:09:42;;;;;;;;;;;;;;;23.74;56.26;95255.72;10319747;28;2016;-48
2022/08/19 09:14:46;;;;;;;;;;;;;;;23.76;56.19;95256.94;10319949;28;1818;-46
2022/08/19 09:19:50;;;;;;;;;;;;;;;23.79;55.86;95259.00;10315300;28;1902;-47
2022/08/19 09:24:52;;;;;;;;;;;;;;;23.81;56.03;95256.03;10316294;28;1913;-49
2022/08/19 09:29:53;;;;;;;;;;;;;;;23.83;55.97;95252.00;10320161;28;1907;-51
2022/08/19 09:34:54;;;;;;;;;;;;;;;23.87;55.87;95260.88;10316018;28;1893;-52
2022/08/19 09:39:55;;;;;;;;;;;;;;;23.89;55.76;95263.22;10317922;28;2072;-53
2022/08/19 09:44:55;;;;;;;;;;;;;;;23.89;55.68;95258.72;10318950;28;1890;-50
2022/08/19 09:49:55;;;;;;;;;;;;;;;23.90;55.86;95244.41;10318970;28;2349;-50
2022/08/19 09:54:55;;;;;;;;;;;;;;;23.91;55.88;95243.31;10315760;28;1901;-49
2022/08/19 09:59:56;;;;;;;;;;;;;;;23.93;56.07;95245.66;10318785;28;1921;-51
2022/08/19 10:10:16;;;;;;;;;;;;;;;23.92;56.43;95268.72;10318286;28;1939;-54
2022/08/19 10:15:20;;;;;;;;;;;;;;;23.81;56.95;95262.13;10320106;28;1839;-52
2022/08/19 10:20:21;;;;;;;;;;;;;;;23.80;57.29;95257.13;10320701;28;1937;-52
2022/08/19 10:25:21;;;;;;;;;;;;;;;23.80;57.67;95249.94;10321271;28;1931;-54
2022/08/19 10:30:22;;;;;;;;;;;;;;;23.75;57.89;95251.97;10315763;28;1989;-53
2022/08/19 10:35:22;;;;;;;;;;;;;;;23.83;58.06;95245.91;10318561;28;1889;-53
2022/08/19 10:40:23;;;;;;;;;;;;;;;23.89;57.89;95250.78;10319253;28;1799;-52
2022/08/19 10:45:25;;;;;;;;;;;;;;;23.92;57.69;95249.41;10318201;28;1880;-52
2022/08/19 11:01:04;;;;;;;;;;;;;;;23.95;57.82;95249.56;10315421;28;1933;-47
2022/08/19 11:06:05;;;;;;;;;;;;;;;23.93;57.41;95241.13;10317791;28;1874;-46
2022/08/19 11:11:05;;;;;;;;;;;;;;;23.86;57.66;95237.38;10314390;28;2048;-48
2022/08/19 11:16:07;;;;;;;;;;;;;;;23.82;57.40;95226.59;10315786;28;1988;-44
2022/08/19 11:21:18;;;;;;;;;;;;;;;23.80;57.88;95220.09;10305933;28;1844;-50
2022/08/19 11:26:19;;;;;;;;;;;;;;;23.82;57.91;95226.59;10310751;28;1925;-52
2022/08/19 11:31:20;;;;;;;;;;;;;;;23.81;57.69;95227.72;10309663;28;1973;-51
2022/08/19 11:36:20;;;;;;;;;;;;;;;23.80;57.77;95233.31;10311414;28;1886;-54
2022/08/19 11:41:22;;;;;;;;;;;;;;;23.72;57.77;95232.19;10307665;28;1850;-54
2022/08/19 11:46:23;;;;;;;;;;;;;;;23.69;57.54;95232.81;10310692;28;2042;-50
2022/08/19 11:51:24;;;;;;;;;;;;;;;23.74;57.66;95226.59;10311561;28;2001;-52
2022/08/19 11:56:25;;;;;;;;;;;;;;;23.71;57.31;95230.63;10313833;28;1885;-53
2022/08/19 12:01:25;;;;;;;;;;;;;;;23.67;57.42;95232.31;10312258;28;1906;-52
2022/08/19 12:06:28;;;;;;;;;;;;;;;23.65;57.51;95246.94;10313060;28;1861;-52
2022/08/19 12:11:28;;;;;;;;;;;;;;;23.63;57.43;95239.31;10312729;28;1910;-54
2022/08/19 12:16:30;;;;;;;;;;;;;;;23.57;57.27;95239.75;10312534;28;1914;-51
2022/08/19 12:21:31;;;;;;;;;;;;;;;23.45;57.40;95253.56;10312761;28;1922;-52
2022/08/19 12:26:31;;;;;;;;;;;;;;;23.38;57.57;95261.91;10321395;28;1902;-54
2022/08/19 12:31:32;;;;;;;;;;;;;;;23.44;57.45;95262.56;10322488;28;1981;-52
2022/08/19 12:36:32;;;;;;;;;;;;;;;23.53;57.20;95250.16;10322847;28;1922;-53
2022/08/19 12:41:33;;;;;;;;;;;;;;;23.55;57.30;95258.59;10320557;28;1901;-54
2022/08/19 12:46:33;;;;;;;;;;;;;;;23.55;57.15;95258.59;10321186;28;1870;-54
2022/08/19 12:51:34;;;;;;;;;;;;;;;23.55;57.01;95258.59;10318622;28;1982;-53
2022/08/19 12:56:34;;;;;;;;;;;;;;;23.56;56.75;95265.41;10322084;28;2002;-52
2022/08/19 13:01:34;;;;;;;;;;;;;;;23.64;56.96;95269.97;10318033;28;1858;-52
2022/08/19 13:06:35;;;;;;;;;;;;;;;23.65;56.14;95268.91;10326000;28;1905;-54
2022/08/19 13:11:36;;;;;;;;;;;;;;;23.57;56.12;95261.69;10322099;28;1937;-52
2022/08/19 13:16:37;;;;;;;;;;;;;;;23.62;56.51;95264.19;10324785;28;1844;-51
2022/08/19 13:21:38;;;;;;;;;;;;;;;23.71;56.32;95262.38;10325955;28;1917;-50
2022/08/19 13:26:38;;;;;;;;;;;;;;;23.80;56.42;95257.91;10324645;28;1866;-51
2022/08/19 13:36:58;;;;;;;;;;;;;;;23.82;55.97;95239.84;10325631;28;1946;-51
2022/08/19 13:42:00;;;;;;;;;;;;;;;23.82;56.00;95247.03;10323814;28;1870;-50
2022/08/19 13:47:06;;;;;;;;;;;;;;;23.80;56.22;95251.84;10322104;28;1941;-51
2022/08/19 13:52:06;;;;;;;;;;;;;;;23.82;55.96;95260.25;10324095;28;2056;-52
2022/08/19 13:57:07;;;;;;;;;;;;;;;23.73;56.13;95260.22;10326121;28;1848;-52
2022/08/19 14:02:07;;;;;;;;;;;;;;;23.72;56.20;95242.75;10325578;28;1897;-52
2022/08/19 14:07:07;;;;;;;;;;;;;;;23.65;56.16;95257.53;10322758;28;1984;-52
2022/08/19 14:12:08;;;;;;;;;;;;;;;23.61;56.41;95253.94;10324384;28;1977;-51
2022/08/19 14:17:09;;;;;;;;;;;;;;;23.65;56.46;95252.25;10325078;28;1925;-53
2022/08/19 14:22:09;;;;;;;;;;;;;;;23.64;56.21;95259.38;10326791;28;1893;-50
2022/08/19 14:27:09;;;;;;;;;;;;;;;23.73;56.33;95257.56;10323732;28;1936;-52
2022/08/19 14:32:10;;;;;;;;;;;;;;;23.63;55.91;95272.94;10317653;28;2109;-51
2022/08/19 14:37:10;;;;;;;;;;;;;;;23.58;56.31;95273.03;10325822;28;1914;-49
2022/08/19 14:42:10;;;;;;;;;;;;;;;23.67;56.59;95274.66;10323017;28;1952;-54
2022/08/19 14:47:11;;;;;;;;;;;;;;;23.66;56.10;95275.75;10322878;28;1932;-54
2022/08/19 14:52:11;;;;;;;;;;;;;;;23.68;56.12;95286.78;10321960;28;2098;-52
2022/08/19 14:57:12;;;;;;;;;;;;;;;23.71;56.09;95282.78;10323354;28;1843;-55
2022/08/19 15:02:12;;;;;;;;;;;;;;;23.74;56.19;95277.63;10324530;28;1885;-50
2022/08/19 15:07:12;;;;;;;;;;;;;;;23.77;55.91;95282.34;10323860;28;1910;-51
2022/08/19 15:12:13;;;;;;;;;;;;;;;23.78;55.58;95283.88;10318691;28;2017;-54
2022/08/19 15:17:13;;;;;;;;;;;;;;;23.65;55.70;95283.97;10322522;28;1984;-55
2022/08/19 15:22:13;;;;;;;;;;;;;;;23.67;55.84;95281.81;10322155;28;1973;-52
2022/08/19 15:27:14;;;;;;;;;;;;;;;23.64;55.91;95285.84;10322014;28;1826;-51
2022/08/19 15:32:14;;;;;;;;;;;;;;;23.55;56.14;95306.19;10321790;28;1910;-53
2022/08/19 15:37:15;;;;;;;;;;;;;;;23.55;56.40;95306.19;10323457;28;1905;-53
2022/08/19 15:42:15;;;;;;;;;;;;;;;23.49;56.82;95311.91;10322772;28;1821;-50
2022/08/19 15:47:15;;;;;;;;;;;;;;;23.45;57.34;95314.41;10320309;28;1893;-51
2022/08/19 15:52:18;;;;;;;;;;;;;;;23.46;57.66;95321.22;10320458;28;1977;-52
2022/08/19 16:07:41;;;;;;;;;;;;;;;23.35;57.88;95328.63;10321356;28;1970;-51
2022/08/19 16:12:42;;;;;;;;;;;;;;;23.31;57.81;95338.22;10319479;28;2041;-54
2022/08/19 16:17:42;;;;;;;;;;;;;;;23.33;57.82;95330.00;10320732;28;1960;-50
2022/08/19 16:22:43;;;;;;;;;;;;;;;23.30;57.81;95335.88;10320137;28;1937;-54
2022/08/19 16:27:44;;;;;;;;;;;;;;;23.14;58.17;95342.59;10319846;28;1898;-51
2022/08/19 16:32:44;;;;;;;;;;;;;;;23.10;58.09;95354.84;10320175;28;1933;-52
2022/08/19 16:37:45;;;;;;;;;;;;;;;23.03;58.28;95352.63;10321239;28;1839;-51
2022/08/19 16:42:45;;;;;;;;;;;;;;;23.05;58.45;95349.66;10322270;28;1893;-50
2022/08/19 16:47:46;;;;;;;;;;;;;;;23.12;58.47;95358.75;10320819;28;1937;-50
2022/08/19 16:52:47;;;;;;;;;;;;;;;23.09;58.56;95361.22;10319487;28;1898;-54
2022/08/19 16:57:47;;;;;;;;;;;;;;;23.13;58.27;95368.25;10319451;28;1921;-52
2022/08/19 17:02:47;;;;;;;;;;;;;;;23.14;58.09;95382.25;10320544;28;1952;-52
2022/08/19 17:07:48;;;;;;;;;;;;;;;23.09;58.12;95374.44;10320242;28;1988;-51
2022/08/19 17:12:48;;;;;;;;;;;;;;;23.08;58.44;95394.03;10328001;28;2698;-49
2022/08/19 17:17:48;;;;;;;;;;;;;;;23.05;58.09;95399.91;10326656;28;1934;-52
2022/08/19 17:22:49;;;;;;;;;;;;;;;23.01;58.38;95396.28;10327141;28;1901;-54
2022/08/19 17:27:50;;;;;;;;;;;;;;;23.03;58.21;95407.34;10327004;28;1989;-52
2022/08/19 17:32:50;;;;;;;;;;;;;;;23.05;58.13;95407.81;10326474;28;1980;-51
2022/08/19 17:37:51;;;;;;;;;;;;;;;23.10;58.00;95419.06;10323717;28;1874;-52
2022/08/19 17:42:53;;;;;;;;;;;;;;;23.06;58.04;95414.69;10325516;28;1870;-50
2022/08/19 17:47:54;;;;;;;;;;;;;;;23.06;57.98;95425.28;10325192;28;1986;-52
2022/08/19 17:52:54;;;;;;;;;;;;;;;23.09;58.00;95429.94;10324889;28;1986;-50
2022/08/19 17:57:55;;;;;;;;;;;;;;;23.07;57.93;95437.41;10324236;28;1842;-52
2022/08/19 18:02:56;;;;;;;;;;;;;;;23.02;57.84;95434.88;10325621;28;1830;-48
2022/08/19 18:07:56;;;;;;;;;;;;;;;22.96;57.88;95438.66;10326201;28;1885;-52
2022/08/19 18:12:57;;;;;;;;;;;;;;;23.00;57.73;95443.06;10328467;28;1917;-52
2022/08/19 18:17:57;;;;;;;;;;;;;;;23.10;57.44;95442.88;10323389;28;1988;-51
2022/08/19 18:22:59;;;;;;;;;;;;;;;23.15;57.42;95449.91;10325805;28;1941;-52
2022/08/19 18:27:59;;;;;;;;;;;;;;;23.09;57.28;95456.38;10323096;28;1929;-52
2022/08/19 18:33:12;;;;;;;;;;;;;;;23.10;56.89;95457.97;10324652;28;1966;-53
2022/08/19 18:49:05;;;;;;;;;;;;;;;22.85;56.69;95466.41;10320145;28;1910;-52
2022/08/19 18:54:05;;;;;;;;;;;;;;;22.82;56.83;95470.41;10321268;28;2103;-52
2022/08/19 18:59:05;;;;;;;;;;;;;;;22.83;56.91;95479.13;10321228;28;1846;-50
2022/08/19 19:04:08;;;;;;;;;;;;;;;22.77;56.73;95475.81;10322453;28;1894;-52
2022/08/19 19:09:09;;;;;;;;;;;;;;;22.73;56.71;95484.63;10323001;28;1968;-52
2022/08/19 19:14:10;;;;;;;;;;;;;;;22.75;57.03;95474.53;10323631;28;1906;-53
2022/08/19 19:19:14;;;;;;;;;;;;;;;22.79;56.61;95483.44;10321972;28;1847;-53
2022/08/19 19:24:16;;;;;;;;;;;;;;;22.72;56.54;95480.38;10322704;28;1835;-54
2022/08/19 19:29:17;;;;;;;;;;;;;;;22.63;56.75;95483.72;10319483;28;1973;-52
2022/08/19 19:34:19;;;;;;;;;;;;;;;22.50;57.03;95487.09;10320737;28;1909;-53
2022/08/19 19:39:19;;;;;;;;;;;;;;;22.47;56.83;95502.75;10322986;28;1866;-52
2022/08/19 19:44:20;;;;;;;;;;;;;;;22.47;56.83;95503.53;10320745;28;1874;-51
2022/08/19 19:49:21;;;;;;;;;;;;;;;22.50;56.98;95507.44;10319495;28;1911;-50
2022/08/19 19:54:21;;;;;;;;;;;;;;;22.46;57.05;95509.88;10320789;28;1858;-51
2022/08/19 19:59:22;;;;;;;;;;;;;;;22.43;56.93;95505.19;10320575;28;1893;-51
2022/08/19 20:04:23;;;;;;;;;;;;;;;22.44;56.99;95529.75;10321405;28;1854;-51
2022/08/19 20:09:23;;;;;;;;;;;;;;;22.55;56.68;95537.19;10321120;28;1978;-49
2022/08/19 20:14:24;;;;;;;;;;;;;;;22.70;55.98;95538.81;10320780;28;1910;-53
2022/08/19 20:19:25;;;;;;;;;;;;;;;22.60;56.47;95553.00;10319296;28;1898;-52
2022/08/19 20:24:31;;;;;;;;;;;;;;;22.54;56.33;95555.97;10321490;28;1909;-52
2022/08/19 20:29:31;;;;;;;;;;;;;;;22.52;56.46;95558.91;10319775;28;2105;-51
2022/08/19 20:34:32;;;;;;;;;;;;;;;22.44;56.51;95556.16;10321871;28;1945;-52
2022/08/19 20:39:32;;;;;;;;;;;;;;;22.39;56.70;95554.38;10318351;28;1900;-52
2022/08/19 20:44:33;;;;;;;;;;;;;;;22.31;56.85;95562.16;10325548;28;2184;-52
2022/08/19 20:49:34;;;;;;;;;;;;;;;22.29;56.85;95567.75;10327219;28;1997;-53
2022/08/19 20:54:34;;;;;;;;;;;;;;;22.19;57.21;95554.72;10329302;28;2058;-51
2022/08/19 20:59:35;;;;;;;;;;;;;;;22.03;57.31;95560.50;10330667;28;1870;-51
2022/08/19 21:04:36;;;;;;;;;;;;;;;22.07;57.46;95564.91;10331931;28;2041;-50
2022/08/19 21:09:36;;;;;;;;;;;;;;;22.22;57.24;95566.53;10328999;28;2097;-50
2022/08/19 21:14:37;;;;;;;;;;;;;;;22.36;57.00;95568.16;10329046;28;2041;-50
2022/08/19 21:19:38;;;;;;;;;;;;;;;22.46;56.56;95567.97;10325875;28;2048;-53
2022/08/19 21:24:38;;;;;;;;;;;;;;;22.30;57.12;95569.31;10328705;28;2130;-50
2022/08/19 21:29:39;;;;;;;;;;;;;;;22.24;57.24;95567.03;10327326;28;2101;-51
2022/08/19 21:34:39;;;;;;;;;;;;;;;22.17;57.43;95577.97;10326767;28;2077;-50
2022/08/19 21:39:40;;;;;;;;;;;;;;;22.14;57.74;95573.25;10325354;28;2090;-51
2022/08/19 21:44:40;;;;;;;;;;;;;;;22.24;57.52;95567.03;10327341;28;2045;-54
2022/08/19 21:49:41;;;;;;;;;;;;;;;22.25;57.66;95579.97;10326971;28;2120;-52
2022/08/19 21:54:41;;;;;;;;;;;;;;;22.24;57.55;95577.59;10325959;28;2064;-51
2022/08/19 21:59:41;;;;;;;;;;;;;;;22.21;57.82;95581.59;10326937;28;2255;-53
2022/08/19 22:04:42;;;;;;;;;;;;;;;22.26;57.43;95576.22;10325761;28;2061;-51
2022/08/19 22:09:43;;;;;;;;;;;;;;;22.36;57.38;95572.66;10320801;28;2073;-50
2022/08/19 22:14:43;;;;;;;;;;;;;;;22.38;57.41;95567.88;10323275;28;1890;-50
2022/08/19 22:19:43;;;;;;;;;;;;;;;22.40;57.04;95557.81;10325300;28;2084;-52
2022/08/19 22:24:43;;;;;;;;;;;;;;;22.39;57.32;95556.22;10325052;28;1906;-51
2022/08/19 22:29:44;;;;;;;;;;;;;;;22.35;57.46;95552.59;10323616;28;2068;-50
2022/08/19 22:34:44;;;;;;;;;;;;;;;22.25;57.66;95548.28;10326407;28;2116;-51
2022/08/19 22:39:45;;;;;;;;;;;;;;;22.21;57.94;95554.41;10324856;28;1953;-49
2022/08/19 22:44:45;;;;;;;;;;;;;;;22.20;57.96;95550.97;10324546;28;2050;-53
2022/08/19 22:49:45;;;;;;;;;;;;;;;22.29;57.63;95548.47;10321010;28;2052;-52
2022/08/19 22:54:46;;;;;;;;;;;;;;;22.24;57.68;95554.63;10321773;28;2187;-52
2022/08/19 22:59:47;;;;;;;;;;;;;;;22.21;57.54;95560.50;10323898;28;2116;-50
2022/08/19 23:04:48;;;;;;;;;;;;;;;22.23;57.47;95554.91;10323806;28;1843;-53
2022/08/19 23:09:48;;;;;;;;;;;;;;;22.23;57.68;95563.63;10321138;28;2099;-50
2022/08/19 23:14:49;;;;;;;;;;;;;;;22.19;57.78;95552.06;10320972;28;2128;-50
2022/08/19 23:19:49;;;;;;;;;;;;;;;22.13;57.86;95558.50;10323134;28;2060;-52
2022/08/19 23:24:49;;;;;;;;;;;;;;;22.13;57.89;95555.88;10322222;28;2097;-53
2022/08/19 23:35:08;;;;;;;;;;;;;;;21.98;58.45;95550.81;10323843;28;2053;-51
2022/08/19 23:40:09;;;;;;;;;;;;;;;22.00;58.13;95546.03;10322604;28;1973;-52
2022/08/19 23:45:09;;;;;;;;;;;;;;;22.02;58.21;95541.25;10323642;28;2053;-52
2022/08/19 23:50:10;;;;;;;;;;;;;;;22.01;58.44;95534.38;10321565;28;2245;-52
2022/08/19 23:55:13;;;;;;;;;;;;;;;21.99;58.29;95527.84;10321804;28;2120;-51
